Time;durP1;ratioP1;P1;durP2;ratioP2;P2;SDS_P1;SDS_P2;PMS_P1;PMS_P2;Temp;Humidity;BMP_temperature;BMP_pressure;BME280_temperature;BME280_humidity;BME280_pressure;Samples;Min_cycle;Max_cycle;Signal;HPM_P1;HPM_P2
2022/10/07 00:00:49;;;;;;;5.07;4.00;;;;;;;14.29;62.85;95705.03;5110674;28;20196;-78
2022/10/07 00:03:16;;;;;;;7.10;4.00;;;;;;;14.34;63.27;95716.69;5094316;28;20221;-78
2022/10/07 00:05:43;;;;;;;5.13;4.07;;;;;;;14.30;63.15;95716.94;5090602;28;20672;-78
2022/10/07 00:08:11;;;;;;;5.37;4.00;;;;;;;14.24;63.04;95714.91;5090520;28;20194;-77
2022/10/07 00:10:39;;;;;;;6.73;4.13;;;;;;;14.29;63.12;95717.06;5090140;28;20190;-77
2022/10/07 00:13:07;;;;;;;5.90;4.33;;;;;;;14.27;63.26;95714.63;5090397;28;20197;-77
2022/10/07 00:15:33;;;;;;;4.93;3.97;;;;;;;14.27;62.94;95717.22;5090158;28;20201;-77
2022/10/07 00:18:01;;;;;;;7.10;4.10;;;;;;;14.23;63.63;95712.47;5090346;28;20198;-78
2022/10/07 00:20:27;;;;;;;5.47;4.37;;;;;;;14.18;63.33;95709.50;5090583;28;20190;-80
2022/10/07 00:22:54;;;;;;;7.60;4.37;;;;;;;14.17;63.56;95707.88;5108465;28;20188;-79
2022/10/07 00:25:23;;;;;;;7.17;4.00;;;;;;;14.20;63.47;95712.72;5111212;28;20177;-78
2022/10/07 00:27:51;;;;;;;4.57;3.80;;;;;;;14.15;63.52;95714.91;5098627;28;20185;-79
2022/10/07 00:30:18;;;;;;;7.57;4.17;;;;;;;14.16;63.52;95707.06;5090971;28;20186;-79
2022/10/07 00:32:45;;;;;;;12.30;4.07;;;;;;;14.14;63.70;95700.41;5091215;28;20177;-78
2022/10/07 00:35:12;;;;;;;4.03;3.63;;;;;;;14.13;63.65;95704.75;5090538;28;20201;-78
2022/10/07 00:37:41;;;;;;;4.47;4.07;;;;;;;14.09;63.82;95689.72;5092696;28;20185;-77
2022/10/07 00:40:13;;;;;;;6.57;4.40;;;;;;;14.11;63.84;95703.25;5097197;28;20222;-76
2022/10/07 00:42:41;;;;;;;7.77;4.20;;;;;;;14.09;63.94;95702.59;5100290;28;20189;-77
2022/10/07 00:45:14;;;;;;;5.70;4.73;;;;;;;14.05;63.97;95690.00;5109740;28;20633;-76
2022/10/07 00:47:43;;;;;;;9.10;4.70;;;;;;;14.05;63.88;95692.56;5101827;28;20190;-76
2022/10/07 00:50:14;;;;;;;5.23;4.00;;;;;;;14.05;63.99;95699.47;5096626;28;20201;-78
2022/10/07 00:52:44;;;;;;;5.03;4.33;;;;;;;14.04;64.00;95687.56;5090891;28;20188;-80
2022/10/07 00:55:15;;;;;;;5.67;3.90;;;;;;;13.99;63.91;95687.97;5090766;28;20216;-78
2022/10/07 00:57:44;;;;;;;4.93;4.17;;;;;;;14.01;64.00;95686.06;5089924;28;20190;-77
2022/10/07 01:00:12;;;;;;;6.30;4.47;;;;;;;13.99;64.11;95689.72;5089582;28;20186;-77
2022/10/07 01:02:39;;;;;;;7.23;4.40;;;;;;;13.93;64.02;95679.97;5089732;28;20190;-78
2022/10/07 01:05:09;;;;;;;5.17;3.97;;;;;;;13.97;64.24;95694.97;5090224;28;20599;-78
2022/10/07 01:07:37;;;;;;;6.57;4.33;;;;;;;13.95;64.25;95690.94;5089957;28;20644;-79
2022/10/07 01:10:06;;;;;;;6.97;3.90;;;;;;;13.94;64.27;95690.09;5090468;28;20190;-78
2022/10/07 01:12:42;;;;;;;8.03;4.63;;;;;;;13.93;64.28;95690.25;5090160;28;20186;-77
2022/10/07 01:15:16;;;;;;;6.37;4.27;;;;;;;13.72;64.23;95655.16;5089943;28;20615;-79
2022/10/07 01:17:52;;;;;;;6.87;3.93;;;;;;;13.88;64.45;95687.25;5090304;28;20193;-78
2022/10/07 01:20:30;;;;;;;6.27;3.90;;;;;;;13.85;64.40;95688.34;5089712;28;20564;-79
2022/10/07 01:23:10;;;;;;;7.13;4.63;;;;;;;13.86;64.38;95689.13;5089892;28;20212;-78
2022/10/07 01:25:54;;;;;;;5.93;4.57;;;;;;;13.85;64.53;95684.94;5089933;28;20246;-78
2022/10/07 01:28:28;;;;;;;8.23;4.83;;;;;;;13.83;64.63;95686.84;5090199;28;20186;-79
2022/10/07 01:31:01;;;;;;;7.67;4.70;;;;;;;13.80;64.57;95675.88;5089470;28;20185;-78
2022/10/07 01:33:32;;;;;;;6.50;4.77;;;;;;;13.80;64.67;95685.34;5089768;28;20672;-80
2022/10/07 01:36:06;;;;;;;6.37;4.30;;;;;;;13.61;64.71;95651.91;5089281;28;20683;-79
2022/10/07 01:38:37;;;;;;;7.87;4.80;;;;;;;13.69;64.75;95672.63;5090190;28;20193;-79
2022/10/07 01:41:09;;;;;;;5.60;4.43;;;;;;;13.75;64.67;95675.47;5090126;28;20388;-78
2022/10/07 01:43:40;;;;;;;6.67;4.60;;;;;;;13.75;64.77;95687.50;5089860;28;20714;-78
2022/10/07 01:46:11;;;;;;;10.17;4.93;;;;;;;13.73;64.85;95682.50;5089743;28;20186;-79
2022/10/07 01:48:38;;;;;;;5.83;4.23;;;;;;;13.72;64.61;95683.44;5091651;28;20201;-78
2022/10/07 01:51:06;;;;;;;6.27;4.83;;;;;;;13.56;64.79;95662.59;5093424;28;20185;-78
2022/10/07 01:53:48;;;;;;;10.73;4.70;;;;;;;13.70;64.86;95685.34;5093157;28;20656;-78
2022/10/07 01:56:41;;;;;;;7.33;4.63;;;;;;;13.67;64.87;95675.31;5093423;28;20189;-78
2022/10/07 01:59:34;;;;;;;7.67;4.80;;;;;;;13.54;64.88;95660.13;5092920;28;20731;-78
2022/10/07 02:02:08;;;;;;;5.00;4.47;;;;;;;13.65;64.99;95672.06;5093115;28;20189;-78
2022/10/07 02:04:57;;;;;;;6.20;4.67;;;;;;;13.61;65.05;95675.03;5093404;28;20216;-79
2022/10/07 02:07:35;;;;;;;7.07;5.13;;;;;;;13.61;65.08;95670.72;5092925;28;20190;-77
2022/10/07 02:10:12;;;;;;;10.93;4.80;;;;;;;13.59;65.25;95670.00;5092730;28;20193;-78
2022/10/07 02:12:43;;;;;;;7.97;5.17;;;;;;;13.58;65.14;95668.41;5102691;28;20249;-78
2022/10/07 02:15:15;;;;;;;6.40;4.60;;;;;;;13.53;65.05;95668.00;5112805;28;20197;-77
2022/10/07 02:17:49;;;;;;;7.00;5.10;;;;;;;13.50;65.50;95663.09;5112921;28;20185;-77
2022/10/07 02:20:19;;;;;;;6.17;4.37;;;;;;;13.56;65.24;95680.59;5113341;28;20181;-78
2022/10/07 02:22:48;;;;;;;6.50;4.57;;;;;;;13.55;65.32;95687.44;5113162;28;20181;-78
2022/10/07 02:25:18;;;;;;;5.70;4.40;;;;;;;13.48;65.38;95675.28;5112855;28;20209;-77
2022/10/07 02:27:51;;;;;;;5.63;4.10;;;;;;;13.51;65.37;95686.13;5112491;28;20588;-80
2022/10/07 02:30:20;;;;;;;7.80;4.43;;;;;;;13.51;65.38;95691.25;5112636;28;20185;-78
2022/10/07 02:32:53;;;;;;;5.70;4.40;;;;;;;13.50;65.46;95688.78;5112877;28;20189;-77
2022/10/07 02:35:26;;;;;;;6.67;4.20;;;;;;;13.45;65.47;95686.63;5113130;28;20601;-77
2022/10/07 02:37:56;;;;;;;5.70;5.10;;;;;;;13.46;65.86;95690.81;5112488;28;20197;-78
2022/10/07 02:40:30;;;;;;;9.20;4.97;;;;;;;13.45;65.42;95698.66;5112566;28;20231;-78
2022/10/07 02:43:03;;;;;;;6.27;4.40;;;;;;;13.45;65.49;95693.53;5096186;28;20192;-78
2022/10/07 02:45:37;;;;;;;7.30;4.60;;;;;;;13.44;65.54;95695.28;5099003;28;20213;-79
2022/10/07 02:48:14;;;;;;;7.33;4.27;;;;;;;13.42;65.52;95688.63;5105549;28;20188;-79
2022/10/07 02:50:46;;;;;;;8.47;4.90;;;;;;;13.40;65.57;95691.34;5112732;28;20216;-78
2022/10/07 02:53:15;;;;;;;5.03;3.97;;;;;;;13.39;65.61;95692.28;5112490;28;20651;-78
2022/10/07 02:55:43;;;;;;;7.67;4.03;;;;;;;13.38;65.60;95692.41;5112022;28;20199;-76
2022/10/07 02:58:13;;;;;;;7.37;4.07;;;;;;;13.39;65.55;95694.06;5112318;28;20181;-77
2022/10/07 03:00:49;;;;;;;7.73;4.53;;;;;;;13.38;65.80;95689.84;5112087;28;20197;-78
2022/10/07 03:03:16;;;;;;;7.87;4.80;;;;;;;13.33;65.53;95692.00;5112124;28;20192;-77
2022/10/07 03:05:43;;;;;;;6.87;4.30;;;;;;;13.36;65.81;95694.31;5111758;28;20223;-77
2022/10/07 03:08:11;;;;;;;6.67;3.80;;;;;;;13.29;65.85;95694.00;5111947;28;20193;-77
2022/10/07 03:10:38;;;;;;;8.30;4.30;;;;;;;13.33;65.78;95689.41;5109696;28;20188;-78
2022/10/07 03:13:05;;;;;;;4.60;3.97;;;;;;;13.34;65.92;95701.31;5091821;28;20246;-79
2022/10/07 03:15:36;;;;;;;6.37;4.37;;;;;;;13.33;65.88;95689.41;5091693;28;20193;-79
2022/10/07 03:18:04;;;;;;;4.83;4.33;;;;;;;13.33;65.90;95700.50;5091116;28;20189;-78
2022/10/07 03:20:31;;;;;;;6.70;4.27;;;;;;;13.33;66.05;95692.00;5091157;28;20544;-77
2022/10/07 03:22:59;;;;;;;10.07;4.87;;;;;;;13.24;66.14;95681.53;5091190;28;20239;-78
2022/10/07 03:25:26;;;;;;;6.63;5.20;;;;;;;13.23;65.81;95682.50;5090481;28;20680;-79
2022/10/07 03:27:53;;;;;;;5.30;3.90;;;;;;;13.21;66.13;95670.69;5091291;28;20281;-78
2022/10/07 03:30:22;;;;;;;4.53;3.97;;;;;;;13.30;66.21;95688.75;5091612;28;20201;-78
2022/10/07 03:32:49;;;;;;;7.93;4.83;;;;;;;13.27;66.11;95680.47;5091353;28;20672;-77
2022/10/07 03:35:17;;;;;;;5.97;3.87;;;;;;;13.30;66.16;95688.75;5091331;28;20243;-77
2022/10/07 03:37:44;;;;;;;6.37;4.30;;;;;;;13.29;66.27;95692.25;5091075;28;20284;-79
2022/10/07 03:40:11;;;;;;;6.90;4.37;;;;;;;13.29;66.24;95686.28;5091163;28;20225;-79
2022/10/07 03:42:39;;;;;;;6.53;4.27;;;;;;;13.28;65.87;95682.91;5091622;28;20192;-79
2022/10/07 03:45:07;;;;;;;5.80;4.60;;;;;;;13.24;66.49;95685.88;5091592;28;20213;-78
2022/10/07 03:47:34;;;;;;;4.10;3.47;;;;;;;13.22;66.30;95678.31;5090880;28;20355;-78
2022/10/07 03:50:01;;;;;;;10.17;4.13;;;;;;;13.24;66.49;95688.44;5091286;28;20181;-78
2022/10/07 03:52:30;;;;;;;5.77;3.67;;;;;;;13.12;66.32;95667.13;5090994;28;20189;-79
2022/10/07 03:54:57;;;;;;;8.70;4.30;;;;;;;13.24;66.50;95686.69;5093329;28;20204;-77
2022/10/07 04:00:08;;;;;;;4.70;4.13;;;;;;;13.21;66.54;95689.50;5110777;28;20188;-78
2022/10/07 04:02:35;;;;;;;4.87;3.70;;;;;;;13.16;66.55;95683.09;5090618;28;20189;-78
2022/10/07 04:05:02;;;;;;;11.50;4.07;;;;;;;13.21;66.63;95689.50;5090550;28;20589;-78
2022/10/07 04:07:30;;;;;;;5.67;4.23;;;;;;;13.21;66.54;95693.78;5090675;28;20221;-78
2022/10/07 04:09:57;;;;;;;6.60;4.00;;;;;;;13.19;66.65;95693.13;5089909;28;20571;-78
2022/10/07 04:12:24;;;;;;;7.17;3.63;;;;;;;13.19;66.58;95699.06;5091435;28;20182;-79
2022/10/07 04:14:51;;;;;;;10.73;4.47;;;;;;;13.19;66.52;95700.84;5090908;28;20668;-78
2022/10/07 04:17:18;;;;;;;6.30;4.07;;;;;;;13.18;66.63;95696.66;5090426;28;20221;-78
2022/10/07 04:19:45;;;;;;;8.50;4.40;;;;;;;13.18;66.48;95691.50;5090073;28;20330;-77
2022/10/07 04:22:12;;;;;;;4.97;3.73;;;;;;;13.14;66.55;95693.50;5110390;28;20609;-78
2022/10/07 04:24:41;;;;;;;9.63;4.40;;;;;;;13.13;66.63;95680.81;5110610;28;20213;-78
2022/10/07 04:27:08;;;;;;;15.33;4.60;;;;;;;13.18;66.69;95692.31;5110811;28;20192;-78
2022/10/07 04:29:35;;;;;;;4.67;3.90;;;;;;;13.17;66.40;95689.84;5110194;28;20215;-79
2022/10/07 04:32:01;;;;;;;5.43;4.10;;;;;;;13.05;66.60;95668.59;5096608;28;20201;-79
2022/10/07 04:34:29;;;;;;;5.60;4.57;;;;;;;13.17;66.67;95687.28;5090067;28;20197;-79
2022/10/07 04:36:57;;;;;;;6.37;4.03;;;;;;;13.17;66.71;95685.56;5101257;28;20269;-79
2022/10/07 04:39:24;;;;;;;7.70;4.80;;;;;;;13.19;66.58;95688.78;5108879;28;20197;-82
2022/10/07 04:41:53;;;;;;;6.03;4.13;;;;;;;13.21;66.56;95689.50;5111451;28;20270;-80
2022/10/07 04:44:19;;;;;;;7.53;4.07;;;;;;;13.21;66.39;95681.78;5114514;28;20250;-79
2022/10/07 04:46:46;;;;;;;9.47;4.70;;;;;;;13.25;66.63;95687.50;5119424;28;20189;-78
2022/10/07 04:49:13;;;;;;;6.73;4.13;;;;;;;13.28;66.54;95680.34;5111149;28;20556;-79
2022/10/07 04:51:40;;;;;;;8.40;4.10;;;;;;;13.31;66.58;95681.84;5110345;28;20185;-82
2022/10/07 04:54:07;;;;;;;8.50;4.40;;;;;;;13.36;66.57;95678.88;5110712;28;20192;-81
2022/10/07 04:56:34;;;;;;;13.53;4.30;;;;;;;13.85;100.00;95678.03;5109243;28;20184;-80
2022/10/07 04:59:02;;;;;;;7.33;4.40;;;;;;;14.41;100.00;95669.66;5110964;28;20605;-81
2022/10/07 05:01:28;;;;;;;8.83;3.50;;;;;;;14.98;100.00;95667.13;5092928;28;20189;-82
2022/10/07 05:03:56;;;;;;;7.27;3.80;;;;;;;15.50;100.00;95678.59;5090154;28;20656;-81
2022/10/07 05:06:23;;;;;;;6.27;3.63;;;;;;;15.88;98.43;95674.19;5090255;28;20216;-80
2022/10/07 05:08:51;;;;;;;10.40;3.73;;;;;;;16.38;96.66;95690.94;5090104;28;20186;-80
2022/10/07 05:11:18;;;;;;;7.20;3.50;;;;;;;16.82;93.61;95691.78;5089852;28;20570;-81
2022/10/07 05:13:45;;;;;;;5.53;4.00;;;;;;;17.24;90.59;95688.47;5090442;28;20190;-80
2022/10/07 05:16:13;;;;;;;7.03;3.83;;;;;;;17.70;88.99;95705.34;5089772;28;20197;-81
2022/10/07 05:18:40;;;;;;;8.60;4.83;;;;;;;18.13;86.00;95706.09;5089844;28;20679;-81
2022/10/07 05:21:08;;;;;;;10.23;4.83;;;;;;;18.44;82.48;95692.56;5090238;28;20182;-81
2022/10/07 05:23:36;;;;;;;8.43;3.97;;;;;;;18.99;80.12;95720.41;5092516;28;20190;-81
2022/10/07 05:26:06;;;;;;;12.47;4.60;;;;;;;19.30;78.53;95705.75;5093772;28;20253;-79
2022/10/07 05:28:35;;;;;;;12.17;4.53;;;;;;;19.76;77.26;95712.91;5093466;28;20235;-80
2022/10/07 05:31:04;;;;;;;14.63;4.17;;;;;;;20.11;75.79;95724.56;5093928;28;20197;-79
2022/10/07 05:33:32;;;;;;;8.97;4.27;;;;;;;20.47;73.88;95722.25;5093813;28;20222;-83
2022/10/07 05:35:59;;;;;;;17.27;4.70;;;;;;;20.86;72.10;95723.13;5094019;28;20200;-83
2022/10/07 05:38:27;;;;;;;18.97;4.30;;;;;;;21.30;70.81;95728.38;5094163;28;20198;-81
2022/10/07 05:40:58;;;;;;;7.25;4.28;;;;;;;21.70;68.99;95721.13;5096674;28;20595;-79
2022/10/07 05:43:26;;;;;;;7.80;4.53;;;;;;;22.23;67.21;95717.34;5096228;28;20186;-78
2022/10/07 05:46:01;;;;;;;10.43;4.50;;;;;;;22.91;65.16;95719.59;5095377;28;20545;-79
2022/10/07 05:48:29;;;;;;;12.68;4.75;;;;;;;23.57;63.37;95719.22;5094166;28;20189;-79
2022/10/07 05:50:57;;;;;;;10.25;4.43;;;;;;;24.15;61.23;95717.09;5093906;28;20235;-80
2022/10/07 05:53:25;;;;;;;10.00;4.50;;;;;;;24.89;59.58;95735.31;5093295;28;20197;-79
2022/10/07 05:55:52;;;;;;;8.52;4.25;;;;;;;25.53;57.98;95728.63;5093337;28;20217;-80
2022/10/07 05:58:19;;;;;;;12.98;4.65;;;;;;;26.20;56.03;95734.47;5092853;28;20188;-79
2022/10/07 06:00:53;;;;;;;9.90;4.88;;;;;;;26.85;54.44;95740.31;5093889;28;20587;-78
2022/10/07 06:03:21;;;;;;;10.80;4.32;;;;;;;27.48;53.01;95744.66;5092816;28;20198;-80
2022/10/07 06:05:49;;;;;;;9.65;4.07;;;;;;;28.09;51.65;95735.91;5093605;28;20213;-79
2022/10/07 06:08:18;;;;;;;6.38;4.40;;;;;;;28.67;49.88;95740.63;5094411;28;20629;-79
2022/10/07 06:13:30;;;;;;;4.85;3.85;;;;;;;29.93;47.46;95751.69;5102101;28;20196;-79
2022/10/07 06:16:01;;;;;;;10.23;4.68;;;;;;;30.47;46.62;95746.13;5110190;28;20562;-78
2022/10/07 06:18:27;;;;;;;6.97;4.07;;;;;;;31.03;45.32;95754.22;5112999;28;20189;-80
2022/10/07 06:20:55;;;;;;;7.22;4.10;;;;;;;31.50;44.15;95751.25;5113246;28;20197;-79
2022/10/07 06:23:24;;;;;;;11.77;3.95;;;;;;;32.00;43.03;95751.16;5112969;28;20188;-79
2022/10/07 06:25:59;;;;;;;6.18;3.45;;;;;;;32.50;41.90;95750.13;5112501;28;20229;-81
2022/10/07 06:28:26;;;;;;;8.65;3.63;;;;;;;32.94;41.27;95757.97;5110730;28;20201;-76
2022/10/07 06:30:53;;;;;;;6.35;4.07;;;;;;;33.32;40.40;95748.97;5109823;28;20561;-79
2022/10/07 06:33:20;;;;;;;9.50;4.07;;;;;;;33.73;39.62;95748.47;5111717;28;20208;-80
2022/10/07 06:35:47;;;;;;;10.68;4.47;;;;;;;34.06;39.08;95755.25;5112286;28;20205;-78
2022/10/07 06:38:13;;;;;;;7.88;4.40;;;;;;;34.35;38.53;95758.28;5109840;28;20189;-80
2022/10/07 06:40:42;;;;;;;7.75;5.13;;;;;;;34.57;37.96;95758.09;5108941;28;20225;-78
2022/10/07 06:43:08;;;;;;;8.05;5.82;;;;;;;34.86;37.18;95761.06;5114975;28;20190;-76
2022/10/07 06:45:35;;;;;;;13.40;6.72;;;;;;;35.12;36.74;95769.84;5125212;28;20225;-77
2022/10/07 06:48:02;;;;;;;15.02;7.95;;;;;;;35.34;36.42;95764.25;5120657;28;20664;-77
2022/10/07 06:50:29;;;;;;;19.83;9.52;;;;;;;35.55;35.79;95771.16;5112067;28;20193;-79
2022/10/07 06:52:56;;;;;;;19.33;11.35;;;;;;;35.70;35.60;95767.66;5112607;28;20655;-78
2022/10/07 06:55:23;;;;;;;20.80;11.80;;;;;;;35.88;35.14;95769.75;5111449;28;20686;-79
2022/10/07 06:57:51;;;;;;;21.50;12.90;;;;;;;36.10;34.85;95773.97;5116478;28;20191;-80
2022/10/07 07:00:18;;;;;;;27.00;14.23;;;;;;;36.24;34.44;95772.28;5115775;28;20248;-80
2022/10/07 07:02:45;;;;;;;22.33;13.13;;;;;;;36.40;34.17;95771.16;5115330;28;20207;-80
2022/10/07 07:05:14;;;;;;;24.95;13.57;;;;;;;36.53;33.84;95764.44;5111458;28;20216;-79
2022/10/07 07:07:41;;;;;;;19.70;11.68;;;;;;;36.62;33.65;95762.78;5113136;28;20217;-80
2022/10/07 07:10:09;;;;;;;20.50;10.90;;;;;;;36.81;33.52;95776.25;5113127;28;20197;-79
2022/10/07 07:12:35;;;;;;;18.85;10.65;;;;;;;36.92;32.85;95772.47;5119472;28;20578;-79
2022/10/07 07:15:04;;;;;;;16.80;9.93;;;;;;;37.05;33.03;95768.38;5116870;28;20185;-78
2022/10/07 07:17:31;;;;;;;15.60;9.20;;;;;;;37.19;32.85;95773.84;5109984;28;20279;-78
2022/10/07 07:19:58;;;;;;;14.95;8.75;;;;;;;37.29;32.30;95765.75;5111549;28;20193;-80
2022/10/07 07:22:25;;;;;;;10.27;7.32;;;;;;;37.39;32.46;95768.38;5111037;28;20679;-82
2022/10/07 07:24:52;;;;;;;14.32;7.85;;;;;;;37.47;32.38;95772.28;5112283;28;20192;-80
2022/10/07 07:27:20;;;;;;;12.02;7.38;;;;;;;37.50;32.29;95760.25;5111080;28;20924;-79
2022/10/07 07:29:47;;;;;;;12.02;6.88;;;;;;;37.56;31.92;95761.78;5111339;28;20717;-81
2022/10/07 07:32:15;;;;;;;13.63;6.53;;;;;;;37.60;31.64;95760.13;5109261;28;20284;-81
2022/10/07 07:34:42;;;;;;;12.23;6.35;;;;;;;37.62;31.51;95758.78;5111440;28;20193;-80
2022/10/07 07:37:09;;;;;;;10.77;5.55;;;;;;;37.64;31.37;95759.28;5111249;28;20246;-79
2022/10/07 07:39:36;;;;;;;9.73;5.47;;;;;;;37.63;31.26;95752.34;5108727;28;20193;-78
2022/10/07 07:42:03;;;;;;;9.02;5.80;;;;;;;37.61;31.28;95753.72;5108296;28;20221;-80
2022/10/07 07:44:30;;;;;;;8.60;5.53;;;;;;;37.61;31.00;95757.19;5110902;28;20269;-81
2022/10/07 07:46:57;;;;;;;6.50;5.43;;;;;;;37.59;31.14;95758.53;5109826;28;20273;-80
2022/10/07 07:49:26;;;;;;;8.02;4.75;;;;;;;37.52;31.26;95747.41;5110158;28;20701;-79
2022/10/07 07:51:55;;;;;;;6.55;4.57;;;;;;;37.45;30.91;95750.41;5110672;28;20203;-79
2022/10/07 07:54:23;;;;;;;7.53;4.63;;;;;;;37.38;30.91;95749.91;5107620;28;20203;-78
2022/10/07 07:56:50;;;;;;;7.53;4.55;;;;;;;37.32;30.98;95754.50;5110451;28;20219;-78
2022/10/07 07:59:17;;;;;;;6.05;4.18;;;;;;;37.34;30.90;95751.56;5111582;28;20173;-79
2022/10/07 08:01:45;;;;;;;7.53;4.70;;;;;;;37.62;31.04;95750.78;5106162;28;20200;-75
2022/10/07 08:04:12;;;;;;;8.13;4.40;;;;;;;37.48;30.68;95728.50;5107239;28;20189;-76
2022/10/07 08:06:41;;;;;;;5.78;3.65;;;;;;;37.35;30.96;95729.13;5109057;28;20266;-77
2022/10/07 08:09:08;;;;;;;5.95;4.07;;;;;;;37.37;30.75;95735.00;5110137;28;20197;-76
2022/10/07 08:11:35;;;;;;;5.10;3.60;;;;;;;37.44;30.69;95730.16;5109367;28;20592;-76
2022/10/07 08:14:03;;;;;;;5.40;3.83;;;;;;;37.36;30.66;95736.88;5107254;28;20635;-78
2022/10/07 08:16:30;;;;;;;10.13;4.60;;;;;;;37.15;31.03;95736.25;5110364;28;20205;-76
2022/10/07 08:18:58;;;;;;;5.68;3.88;;;;;;;36.92;31.00;95735.13;5112122;28;20197;-78
2022/10/07 08:21:26;;;;;;;6.35;3.83;;;;;;;36.74;31.07;95726.97;5111475;28;20200;-79
2022/10/07 08:23:57;;;;;;;7.95;3.75;;;;;;;36.54;31.50;95727.91;5110309;28;20692;-76
2022/10/07 08:26:24;;;;;;;9.32;3.95;;;;;;;36.32;31.32;95723.75;5110114;28;20289;-79
2022/10/07 08:28:51;;;;;;;4.57;3.72;;;;;;;36.12;31.44;95723.88;5110087;28;20258;-76
2022/10/07 08:31:19;;;;;;;7.10;3.17;;;;;;;35.90;31.43;95722.34;5110274;28;20185;-79
2022/10/07 08:33:48;;;;;;;4.25;3.13;;;;;;;35.67;31.40;95721.09;5109909;28;20205;-77
2022/10/07 08:36:16;;;;;;;6.57;3.35;;;;;;;35.47;31.60;95710.50;5109404;28;20652;-81
2022/10/07 08:38:44;;;;;;;7.07;3.70;;;;;;;35.24;31.53;95714.53;5109167;28;20189;-76
2022/10/07 08:41:21;;;;;;;5.03;3.22;;;;;;;35.01;31.61;95725.72;5109615;28;20228;-76
2022/10/07 08:43:49;;;;;;;7.30;2.95;;;;;;;34.78;31.83;95711.06;5109685;28;20184;-76
2022/10/07 08:46:19;;;;;;;3.92;2.88;;;;;;;34.52;31.83;95704.94;5118149;28;20224;-78
2022/10/07 08:48:52;;;;;;;3.83;3.00;;;;;;;34.28;31.56;95705.38;5109687;28;20200;-77
2022/10/07 08:51:24;;;;;;;3.80;2.80;;;;;;;34.05;31.97;95704.00;5110189;28;20577;-76
2022/10/07 08:53:56;;;;;;;3.88;3.10;;;;;;;33.83;31.96;95701.53;5112806;28;20185;-81
2022/10/07 08:56:25;;;;;;;4.93;3.10;;;;;;;33.61;31.93;95704.34;5110587;28;20204;-77
2022/10/07 08:59:03;;;;;;;5.07;3.13;;;;;;;33.26;31.76;95672.31;5113365;28;20680;-76
2022/10/07 09:01:41;;;;;;;4.88;2.42;;;;;;;33.08;31.97;95684.94;5113937;28;20820;-76
2022/10/07 09:04:21;;;;;;;4.65;2.70;;;;;;;32.83;32.06;95692.66;5107744;28;20310;-75
2022/10/07 09:06:54;;;;;;;4.55;2.72;;;;;;;32.54;32.50;95689.50;5111671;28;20299;-76
2022/10/07 09:09:28;;;;;;;7.20;2.95;;;;;;;32.27;32.42;95689.50;5114883;28;20189;-77
2022/10/07 09:11:58;;;;;;;4.35;2.90;;;;;;;31.97;32.38;95682.84;5119701;28;20609;-77
2022/10/07 09:14:29;;;;;;;3.33;2.80;;;;;;;31.44;32.23;95639.34;5116913;28;20193;-74
2022/10/07 09:17:01;;;;;;;3.97;2.67;;;;;;;31.35;32.32;95668.06;5118928;28;20574;-77
2022/10/07 09:19:31;;;;;;;5.40;2.65;;;;;;;31.06;32.32;95663.91;5119963;28;20223;-76
2022/10/07 09:22:05;;;;;;;5.43;2.42;;;;;;;30.77;32.47;95668.50;5121120;28;20197;-77
2022/10/07 09:24:34;;;;;;;3.25;2.47;;;;;;;30.42;32.67;95651.81;5116597;28;20185;-74
2022/10/07 09:27:12;;;;;;;3.53;2.70;;;;;;;30.20;32.57;95664.09;5117660;28;20216;-75
2022/10/07 09:29:39;;;;;;;4.47;2.60;;;;;;;29.97;32.72;95657.06;5118832;28;20189;-74
2022/10/07 09:32:07;;;;;;;4.10;2.75;;;;;;;29.73;32.86;95654.50;5114688;28;20276;-76
2022/10/07 09:34:34;;;;;;;4.75;2.58;;;;;;;29.53;33.04;95645.34;5119577;28;20623;-78
2022/10/07 09:37:19;;;;;;;3.50;2.60;;;;;;;29.28;33.53;95659.63;5117009;28;20189;-80
2022/10/07 09:39:49;;;;;;;2.53;2.22;;;;;;;29.08;33.37;95656.53;5114326;28;21597;-76
2022/10/07 09:42:36;;;;;;;3.40;2.63;;;;;;;28.86;33.85;95651.81;5115901;28;20184;-75
2022/10/07 09:45:17;;;;;;;2.95;2.55;;;;;;;28.67;33.75;95647.66;5114259;28;20189;-79
2022/10/07 09:47:45;;;;;;;4.28;2.40;;;;;;;28.48;34.11;95644.31;5111298;28;20209;-78
2022/10/07 09:50:31;;;;;;;4.50;2.25;;;;;;;28.32;34.00;95650.22;5113386;28;20193;-77
2022/10/07 09:52:58;;;;;;;3.80;2.65;;;;;;;28.08;34.04;95633.56;5111675;28;20633;-78
2022/10/07 09:55:36;;;;;;;4.78;2.38;;;;;;;27.97;34.50;95641.19;5113101;28;20211;-78
2022/10/07 09:58:06;;;;;;;3.25;2.30;;;;;;;27.84;34.66;95627.41;5113614;28;20275;-80
2022/10/07 10:00:42;;;;;;;6.47;2.55;;;;;;;27.69;34.59;95625.16;5107714;28;20201;-77
2022/10/07 10:03:10;;;;;;;3.95;2.42;;;;;;;27.58;35.02;95624.06;5111229;28;20192;-79
2022/10/07 10:05:38;;;;;;;3.88;2.40;;;;;;;27.47;34.87;95619.56;5112473;28;20201;-79
2022/10/07 10:08:19;;;;;;;5.07;2.42;;;;;;;27.37;35.03;95624.53;5111449;28;20312;-79
2022/10/07 10:10:51;;;;;;;3.28;2.67;;;;;;;27.25;35.14;95612.13;5112747;28;20204;-77
2022/10/07 10:13:28;;;;;;;2.65;2.45;;;;;;;27.17;35.20;95609.78;5112169;28;20736;-77
2022/10/07 10:15:55;;;;;;;2.47;2.22;;;;;;;27.03;35.71;95600.44;5111093;28;20193;-79
2022/10/07 10:18:29;;;;;;;7.85;2.47;;;;;;;26.94;35.79;95607.78;5112114;28;20208;-79
2022/10/07 10:20:56;;;;;;;2.30;2.10;;;;;;;26.90;35.82;95604.00;5109651;28;20196;-78
2022/10/07 10:23:27;;;;;;;4.22;2.60;;;;;;;26.81;35.77;95604.47;5112568;28;20219;-76
2022/10/07 10:26:28;;;;;;;2.72;2.10;;;;;;;26.70;36.08;95596.31;5111544;28;20655;-77
2022/10/07 10:29:10;;;;;;;4.28;2.53;;;;;;;26.65;36.19;95600.59;5112160;28;20664;-78
2022/10/07 10:31:52;;;;;;;6.63;2.28;;;;;;;26.52;36.31;95588.41;5107470;28;20603;-78
2022/10/07 10:34:33;;;;;;;2.95;2.40;;;;;;;26.49;36.40;95591.44;5110166;28;20197;-76
2022/10/07 10:37:08;;;;;;;2.50;2.03;;;;;;;26.42;36.46;95588.03;5111459;28;20268;-75
2022/10/07 10:39:49;;;;;;;4.82;2.80;;;;;;;26.34;36.35;95583.88;5111357;28;20198;-77
2022/10/07 10:42:23;;;;;;;5.72;2.63;;;;;;;26.27;36.46;95581.28;5111862;28;20196;-80
2022/10/07 10:45:06;;;;;;;2.75;2.20;;;;;;;26.20;36.60;95569.25;5113729;28;20205;-75
2022/10/07 10:47:51;;;;;;;2.50;2.30;;;;;;;26.16;36.81;95568.06;5116310;28;20365;-77
2022/10/07 10:50:26;;;;;;;2.38;2.17;;;;;;;26.08;36.70;95569.16;5113303;28;20583;-75
2022/10/07 10:53:07;;;;;;;3.10;2.22;;;;;;;26.03;36.83;95564.50;5110929;28;20235;-81
2022/10/07 10:56:05;;;;;;;3.88;2.53;;;;;;;25.95;36.74;95556.09;5091515;28;20200;-80
2022/10/07 10:58:43;;;;;;;2.00;1.90;;;;;;;25.90;37.22;95546.25;5107740;28;20193;-78
2022/10/07 11:01:20;;;;;;;2.25;2.05;;;;;;;25.89;36.98;95543.84;5107714;28;20243;-81
2022/10/07 11:04:10;;;;;;;4.57;1.92;;;;;;;25.86;37.11;95541.66;5107198;28;20249;-75
2022/10/07 11:06:40;;;;;;;2.72;2.38;;;;;;;25.82;37.43;95545.72;5109420;28;20243;-80
2022/10/07 11:09:16;;;;;;;3.00;2.40;;;;;;;25.79;37.09;95543.53;5111518;28;20185;-78
2022/10/07 11:11:44;;;;;;;2.15;1.92;;;;;;;25.75;37.29;95540.50;5110013;28;20545;-81
2022/10/07 11:14:15;;;;;;;4.03;2.13;;;;;;;25.71;37.75;95536.69;5106700;28;20869;-80
2022/10/07 11:16:46;;;;;;;2.30;1.92;;;;;;;25.68;37.46;95539.72;5108742;28;20192;-79
2022/10/07 11:19:18;;;;;;;2.88;2.42;;;;;;;25.63;37.62;95527.25;5110915;28;20557;-80
2022/10/07 11:21:48;;;;;;;2.88;2.35;;;;;;;25.56;37.58;95517.81;5109828;28;20639;-80
2022/10/07 11:24:19;;;;;;;3.05;2.30;;;;;;;25.52;37.41;95523.50;5111092;28;20185;-78
2022/10/07 11:26:51;;;;;;;2.40;2.20;;;;;;;25.52;37.90;95531.38;5118555;28;20221;-78
2022/10/07 11:29:26;;;;;;;2.13;2.03;;;;;;;25.49;37.63;95528.34;5110343;28;20196;-79
2022/10/07 11:32:02;;;;;;;6.30;2.05;;;;;;;25.40;37.95;95519.16;5110735;28;20191;-78
2022/10/07 11:34:39;;;;;;;2.03;1.88;;;;;;;25.35;37.62;95517.16;5110053;28;20332;-79
2022/10/07 11:37:15;;;;;;;2.50;2.30;;;;;;;25.37;37.90;95519.56;5106306;28;20185;-81
2022/10/07 11:39:42;;;;;;;2.17;2.08;;;;;;;25.30;37.91;95511.72;5109401;28;20181;-77
2022/10/07 11:42:17;;;;;;;2.80;2.22;;;;;;;25.28;37.86;95519.00;5110560;28;20221;-83
2022/10/07 11:44:53;;;;;;;2.97;1.83;;;;;;;25.27;37.93;95510.34;5110518;28;20189;-79
2022/10/07 11:47:27;;;;;;;3.58;1.92;;;;;;;25.16;37.67;95497.91;5110857;28;20212;-82
2022/10/07 11:50:01;;;;;;;2.38;2.17;;;;;;;24.98;37.94;95475.00;5110813;28;20207;-82
2022/10/07 11:52:32;;;;;;;2.92;2.40;;;;;;;25.15;38.19;95503.34;5108927;28;20626;-82